sensor_id;sensor_type;location;lat;lon;timestamp;pressure;altitude;pressure_sealevel;temperature;humidity
11314;BME280;5712;48.858;9.206;2022-07-30T00:00:16;98143.41;;;17.58;100.00
11314;BME280;5712;48.858;9.206;2022-07-30T00:02:43;98141.41;;;17.60;100.00
11314;BME280;5712;48.858;9.206;2022-07-30T00:05:09;98139.28;;;17.63;100.00
11314;BME280;5712;48.858;9.206;2022-07-30T00:07:36;98142.66;;;17.65;100.00
11314;BME280;5712;48.858;9.206;2022-07-30T00:10:03;98141.94;;;17.63;100.00
11314;BME280;5712;48.858;9.206;2022-07-30T00:12:31;98137.59;;;17.62;100.00
11314;BME280;5712;48.858;9.206;2022-07-30T00:14:58;98143.81;;;17.63;100.00
11314;BME280;5712;48.858;9.206;2022-07-30T00:17:25;98146.34;;;17.64;100.00
11314;BME280;5712;48.858;9.206;2022-07-30T00:19:52;98151.81;;;17.63;100.00
11314;BME280;5712;48.858;9.206;2022-07-30T00:22:18;98151.69;;;17.64;100.00
11314;BME280;5712;48.858;9.206;2022-07-30T00:24:45;98153.03;;;17.68;100.00
11314;BME280;5712;48.858;9.206;2022-07-30T00:27:11;98161.78;;;17.70;100.00
11314;BME280;5712;48.858;9.206;2022-07-30T00:29:40;98165.59;;;17.85;100.00
11314;BME280;5712;48.858;9.206;2022-07-30T00:32:06;98170.06;;;17.94;100.00
11314;BME280;5712;48.858;9.206;2022-07-30T00:34:33;98168.28;;;18.03;100.00
11314;BME280;5712;48.858;9.206;2022-07-30T00:36:59;98173.91;;;18.09;100.00
11314;BME280;5712;48.858;9.206;2022-07-30T00:39:26;98166.94;;;18.16;100.00
11314;BME280;5712;48.858;9.206;2022-07-30T00:41:56;98165.66;;;18.20;98.62
11314;BME280;5712;48.858;9.206;2022-07-30T00:44:22;98171.59;;;18.14;98.33
11314;BME280;5712;48.858;9.206;2022-07-30T00:46:50;98177.25;;;18.11;97.97
11314;BME280;5712;48.858;9.206;2022-07-30T00:49:17;98181.25;;;18.07;97.38
11314;BME280;5712;48.858;9.206;2022-07-30T00:51:43;98167.00;;;18.07;96.97
11314;BME280;5712;48.858;9.206;2022-07-30T00:54:10;98168.41;;;18.11;95.53
11314;BME280;5712;48.858;9.206;2022-07-30T00:56:37;98173.50;;;18.04;95.91
11314;BME280;5712;48.858;9.206;2022-07-30T00:59:03;98173.09;;;17.99;95.86
11314;BME280;5712;48.858;9.206;2022-07-30T01:01:30;98173.28;;;17.98;95.85
11314;BME280;5712;48.858;9.206;2022-07-30T01:03:59;98165.69;;;17.93;96.04
11314;BME280;5712;48.858;9.206;2022-07-30T01:06:25;98163.88;;;17.94;95.69
11314;BME280;5712;48.858;9.206;2022-07-30T01:08:52;98172.56;;;17.96;95.18
11314;BME280;5712;48.858;9.206;2022-07-30T01:11:19;98175.09;;;17.97;95.37
11314;BME280;5712;48.858;9.206;2022-07-30T01:13:46;98174.81;;;18.00;95.63
11314;BME280;5712;48.858;9.206;2022-07-30T01:16:13;98177.03;;;18.05;95.34
11314;BME280;5712;48.858;9.206;2022-07-30T01:18:41;98178.25;;;18.10;94.63
11314;BME280;5712;48.858;9.206;2022-07-30T01:21:33;98173.28;;;18.15;92.65
11314;BME280;5712;48.858;9.206;2022-07-30T01:24:11;98177.63;;;18.16;93.98
11314;BME280;5712;48.858;9.206;2022-07-30T01:26:46;98176.78;;;17.98;95.27
11314;BME280;5712;48.858;9.206;2022-07-30T01:29:14;98182.78;;;17.83;96.29
11314;BME280;5712;48.858;9.206;2022-07-30T01:31:43;98173.41;;;17.79;96.04
11314;BME280;5712;48.858;9.206;2022-07-30T01:34:11;98184.53;;;17.74;96.07
11314;BME280;5712;48.858;9.206;2022-07-30T01:36:40;98180.84;;;17.75;96.07
11314;BME280;5712;48.858;9.206;2022-07-30T01:39:07;98189.19;;;17.72;96.50
11314;BME280;5712;48.858;9.206;2022-07-30T01:41:35;98186.78;;;17.69;96.77
11314;BME280;5712;48.858;9.206;2022-07-30T01:44:04;98192.44;;;17.66;97.29
11314;BME280;5712;48.858;9.206;2022-07-30T01:46:32;98200.75;;;17.63;98.18
11314;BME280;5712;48.858;9.206;2022-07-30T01:49:00;98191.66;;;17.56;98.87
11314;BME280;5712;48.858;9.206;2022-07-30T01:51:28;98199.84;;;17.55;97.63
11314;BME280;5712;48.858;9.206;2022-07-30T01:53:55;98196.44;;;17.53;97.40
11314;BME280;5712;48.858;9.206;2022-07-30T01:56:24;98198.16;;;17.44;98.03
11314;BME280;5712;48.858;9.206;2022-07-30T01:58:53;98189.78;;;17.39;98.28
11314;BME280;5712;48.858;9.206;2022-07-30T02:01:22;98188.34;;;17.35;98.58
11314;BME280;5712;48.858;9.206;2022-07-30T02:03:49;98193.59;;;17.27;98.82
11314;BME280;5712;48.858;9.206;2022-07-30T02:06:20;98192.19;;;17.23;98.74
11314;BME280;5712;48.858;9.206;2022-07-30T02:08:51;98201.88;;;17.24;98.68
11314;BME280;5712;48.858;9.206;2022-07-30T02:11:20;98191.78;;;17.18;98.84
11314;BME280;5712;48.858;9.206;2022-07-30T02:14:01;98196.44;;;17.16;98.71
11314;BME280;5712;48.858;9.206;2022-07-30T02:16:37;98186.03;;;17.13;98.46
11314;BME280;5712;48.858;9.206;2022-07-30T02:19:07;98186.88;;;17.14;98.42
11314;BME280;5712;48.858;9.206;2022-07-30T02:21:37;98185.03;;;17.14;97.84
11314;BME280;5712;48.858;9.206;2022-07-30T02:24:09;98190.38;;;17.14;97.73
11314;BME280;5712;48.858;9.206;2022-07-30T02:26:37;98192.91;;;17.16;97.79
11314;BME280;5712;48.858;9.206;2022-07-30T02:29:06;98185.59;;;17.08;98.56
11314;BME280;5712;48.858;9.206;2022-07-30T02:31:34;98189.97;;;17.09;98.39
11314;BME280;5712;48.858;9.206;2022-07-30T02:34:03;98190.81;;;17.10;98.64
11314;BME280;5712;48.858;9.206;2022-07-30T02:36:31;98183.66;;;17.10;98.15
11314;BME280;5712;48.858;9.206;2022-07-30T02:38:59;98196.72;;;17.04;98.85
11314;BME280;5712;48.858;9.206;2022-07-30T02:41:28;98196.88;;;17.02;99.03
11314;BME280;5712;48.858;9.206;2022-07-30T02:43:56;98200.53;;;17.01;98.36
11314;BME280;5712;48.858;9.206;2022-07-30T02:46:23;98196.59;;;17.05;97.74
11314;BME280;5712;48.858;9.206;2022-07-30T02:48:53;98214.28;;;17.06;97.36
11314;BME280;5712;48.858;9.206;2022-07-30T02:51:20;98209.63;;;17.08;97.12
11314;BME280;5712;48.858;9.206;2022-07-30T02:53:48;98208.53;;;17.01;97.39
11314;BME280;5712;48.858;9.206;2022-07-30T02:56:18;98222.75;;;17.02;97.44
11314;BME280;5712;48.858;9.206;2022-07-30T02:58:48;98217.84;;;16.97;97.21
11314;BME280;5712;48.858;9.206;2022-07-30T03:01:17;98216.56;;;16.92;97.41
11314;BME280;5712;48.858;9.206;2022-07-30T03:03:45;98223.03;;;16.89;97.85
11314;BME280;5712;48.858;9.206;2022-07-30T03:06:14;98216.31;;;16.85;98.10
11314;BME280;5712;48.858;9.206;2022-07-30T03:08:42;98227.25;;;16.82;97.68
11314;BME280;5712;48.858;9.206;2022-07-30T03:11:10;98222.50;;;16.76;97.73
11314;BME280;5712;48.858;9.206;2022-07-30T03:13:37;98221.13;;;16.72;97.77
11314;BME280;5712;48.858;9.206;2022-07-30T03:16:08;98220.81;;;16.66;97.98
11314;BME280;5712;48.858;9.206;2022-07-30T03:18:36;98223.63;;;16.64;97.75
11314;BME280;5712;48.858;9.206;2022-07-30T03:21:05;98227.56;;;16.60;97.96
11314;BME280;5712;48.858;9.206;2022-07-30T03:23:35;98225.88;;;16.59;97.73
11314;BME280;5712;48.858;9.206;2022-07-30T03:26:04;98233.19;;;16.57;97.69
11314;BME280;5712;48.858;9.206;2022-07-30T03:28:35;98230.09;;;16.52;97.81
11314;BME280;5712;48.858;9.206;2022-07-30T03:31:04;98229.25;;;16.52;97.72
11314;BME280;5712;48.858;9.206;2022-07-30T03:33:32;98232.75;;;16.52;97.06
11314;BME280;5712;48.858;9.206;2022-07-30T03:36:00;98241.06;;;16.49;96.69
11314;BME280;5712;48.858;9.206;2022-07-30T03:38:28;98232.91;;;16.51;96.67
11314;BME280;5712;48.858;9.206;2022-07-30T03:40:57;98243.44;;;16.52;96.03
11314;BME280;5712;48.858;9.206;2022-07-30T03:43:24;98240.75;;;16.52;95.44
11314;BME280;5712;48.858;9.206;2022-07-30T03:45:52;98242.72;;;16.50;95.30
11314;BME280;5712;48.858;9.206;2022-07-30T03:48:20;98249.06;;;16.49;95.11
11314;BME280;5712;48.858;9.206;2022-07-30T03:50:48;98242.72;;;16.50;95.24
11314;BME280;5712;48.858;9.206;2022-07-30T03:53:15;98253.66;;;16.47;95.23
11314;BME280;5712;48.858;9.206;2022-07-30T03:55:42;98254.25;;;16.51;95.21
11314;BME280;5712;48.858;9.206;2022-07-30T03:58:10;98255.38;;;16.48;95.10
11314;BME280;5712;48.858;9.206;2022-07-30T04:00:37;98251.28;;;16.44;95.33
11314;BME280;5712;48.858;9.206;2022-07-30T04:03:04;98255.66;;;16.45;95.23
11314;BME280;5712;48.858;9.206;2022-07-30T04:05:30;98257.63;;;16.43;95.49
11314;BME280;5712;48.858;9.206;2022-07-30T04:07:57;98256.63;;;16.44;95.22
11314;BME280;5712;48.858;9.206;2022-07-30T04:10:24;98262.66;;;16.46;95.02
11314;BME280;5712;48.858;9.206;2022-07-30T04:12:50;98263.66;;;16.45;95.08
11314;BME280;5712;48.858;9.206;2022-07-30T04:15:18;98266.31;;;16.45;94.96
11314;BME280;5712;48.858;9.206;2022-07-30T04:17:46;98267.31;;;16.44;95.09
11314;BME280;5712;48.858;9.206;2022-07-30T04:20:16;98268.00;;;16.46;95.11
11314;BME280;5712;48.858;9.206;2022-07-30T04:22:46;98276.72;;;16.48;95.24
11314;BME280;5712;48.858;9.206;2022-07-30T04:25:13;98278.41;;;16.49;95.44
11314;BME280;5712;48.858;9.206;2022-07-30T04:27:40;98286.84;;;16.54;94.88
11314;BME280;5712;48.858;9.206;2022-07-30T04:30:07;98286.28;;;16.51;95.09
11314;BME280;5712;48.858;9.206;2022-07-30T04:32:36;98284.56;;;16.59;94.56
11314;BME280;5712;48.858;9.206;2022-07-30T04:35:04;98286.84;;;16.64;93.90
11314;BME280;5712;48.858;9.206;2022-07-30T04:37:30;98289.09;;;16.68;93.69
11314;BME280;5712;48.858;9.206;2022-07-30T04:39:57;98291.19;;;16.74;93.11
11314;BME280;5712;48.858;9.206;2022-07-30T04:42:24;98291.63;;;16.79;92.67
11314;BME280;5712;48.858;9.206;2022-07-30T04:44:51;98288.94;;;17.08;91.90
11314;BME280;5712;48.858;9.206;2022-07-30T04:47:17;98299.88;;;17.33;90.82
11314;BME280;5712;48.858;9.206;2022-07-30T04:49:46;98297.34;;;17.22;91.08
11314;BME280;5712;48.858;9.206;2022-07-30T04:52:15;98302.53;;;17.14;91.34
11314;BME280;5712;48.858;9.206;2022-07-30T04:54:44;98303.13;;;17.18;90.85
11314;BME280;5712;48.858;9.206;2022-07-30T04:57:12;98300.84;;;17.23;90.84
11314;BME280;5712;48.858;9.206;2022-07-30T04:59:40;98303.25;;;17.26;90.33
11314;BME280;5712;48.858;9.206;2022-07-30T05:02:08;98310.56;;;17.33;89.92
11314;BME280;5712;48.858;9.206;2022-07-30T05:04:36;98316.31;;;17.38;89.69
11314;BME280;5712;48.858;9.206;2022-07-30T05:07:05;98313.25;;;17.43;89.60
11314;BME280;5712;48.858;9.206;2022-07-30T05:09:32;98316.03;;;17.51;89.18
11314;BME280;5712;48.858;9.206;2022-07-30T05:11:59;98320.78;;;17.57;88.63
11314;BME280;5712;48.858;9.206;2022-07-30T05:14:26;98328.06;;;17.74;87.42
11314;BME280;5712;48.858;9.206;2022-07-30T05:16:53;98319.00;;;17.84;87.29
11314;BME280;5712;48.858;9.206;2022-07-30T05:19:20;98323.19;;;17.96;87.43
11314;BME280;5712;48.858;9.206;2022-07-30T05:21:47;98319.19;;;18.10;87.12
11314;BME280;5712;48.858;9.206;2022-07-30T05:24:15;98323.19;;;18.23;86.82
11314;BME280;5712;48.858;9.206;2022-07-30T05:26:42;98324.09;;;18.41;85.84
11314;BME280;5712;48.858;9.206;2022-07-30T05:29:08;98330.88;;;18.63;84.95
11314;BME280;5712;48.858;9.206;2022-07-30T05:31:35;98330.88;;;19.15;81.76
11314;BME280;5712;48.858;9.206;2022-07-30T05:34:01;98322.38;;;20.06;76.67
11314;BME280;5712;48.858;9.206;2022-07-30T05:36:28;98322.16;;;20.98;72.89
11314;BME280;5712;48.858;9.206;2022-07-30T05:38:55;98324.00;;;21.86;69.16
11314;BME280;5712;48.858;9.206;2022-07-30T05:41:22;98327.09;;;22.68;65.19
11314;BME280;5712;48.858;9.206;2022-07-30T05:43:49;98326.75;;;23.46;62.62
11314;BME280;5712;48.858;9.206;2022-07-30T05:46:16;98329.94;;;24.16;59.86
11314;BME280;5712;48.858;9.206;2022-07-30T05:48:42;98324.72;;;24.72;57.14
11314;BME280;5712;48.858;9.206;2022-07-30T05:51:09;98323.59;;;25.23;55.32
11314;BME280;5712;48.858;9.206;2022-07-30T05:53:35;98328.25;;;25.71;53.47
11314;BME280;5712;48.858;9.206;2022-07-30T05:56:02;98328.97;;;26.07;51.16
11314;BME280;5712;48.858;9.206;2022-07-30T05:58:29;98334.59;;;26.46;50.38
11314;BME280;5712;48.858;9.206;2022-07-30T06:00:56;98336.25;;;26.75;48.45
11314;BME280;5712;48.858;9.206;2022-07-30T06:03:23;98332.81;;;27.07;48.47
11314;BME280;5712;48.858;9.206;2022-07-30T06:05:50;98333.75;;;27.33;47.32
11314;BME280;5712;48.858;9.206;2022-07-30T06:08:16;98329.16;;;27.53;45.88
11314;BME280;5712;48.858;9.206;2022-07-30T06:10:43;98338.75;;;27.36;45.41
11314;BME280;5712;48.858;9.206;2022-07-30T06:13:09;98342.53;;;27.61;46.04
11314;BME280;5712;48.858;9.206;2022-07-30T06:15:37;98347.59;;;27.90;44.97
11314;BME280;5712;48.858;9.206;2022-07-30T06:18:04;98345.25;;;28.06;45.20
11314;BME280;5712;48.858;9.206;2022-07-30T06:20:30;98343.81;;;27.78;43.44
11314;BME280;5712;48.858;9.206;2022-07-30T06:22:57;98347.75;;;27.56;43.44
11314;BME280;5712;48.858;9.206;2022-07-30T06:25:23;98350.84;;;27.27;43.16
11314;BME280;5712;48.858;9.206;2022-07-30T06:27:50;98349.91;;;27.07;43.40
11314;BME280;5712;48.858;9.206;2022-07-30T06:30:17;98349.06;;;27.00;43.76
11314;BME280;5712;48.858;9.206;2022-07-30T06:32:44;98355.84;;;27.24;43.22
11314;BME280;5712;48.858;9.206;2022-07-30T06:35:11;98351.91;;;27.45;43.29
11314;BME280;5712;48.858;9.206;2022-07-30T06:37:38;98358.81;;;27.61;42.13
11314;BME280;5712;48.858;9.206;2022-07-30T06:40:08;98364.13;;;26.62;43.15
11314;BME280;5712;48.858;9.206;2022-07-30T06:42:34;98354.47;;;26.19;44.40
11314;BME280;5712;48.858;9.206;2022-07-30T06:45:01;98359.31;;;25.96;45.20
11314;BME280;5712;48.858;9.206;2022-07-30T06:47:27;98360.63;;;26.07;44.90
11314;BME280;5712;48.858;9.206;2022-07-30T06:49:56;98355.81;;;25.81;44.91
11314;BME280;5712;48.858;9.206;2022-07-30T06:52:23;98360.19;;;26.03;44.95
11314;BME280;5712;48.858;9.206;2022-07-30T06:54:50;98361.19;;;25.96;44.88
11314;BME280;5712;48.858;9.206;2022-07-30T06:57:16;98357.28;;;25.35;46.14
11314;BME280;5712;48.858;9.206;2022-07-30T06:59:43;98363.88;;;24.47;48.29
11314;BME280;5712;48.858;9.206;2022-07-30T07:02:09;98365.63;;;23.74;51.46
11314;BME280;5712;48.858;9.206;2022-07-30T07:04:36;98368.19;;;23.31;52.80
11314;BME280;5712;48.858;9.206;2022-07-30T07:07:04;98365.13;;;23.03;54.11
11314;BME280;5712;48.858;9.206;2022-07-30T07:09:30;98367.41;;;22.92;55.43
11314;BME280;5712;48.858;9.206;2022-07-30T07:11:57;98372.31;;;22.88;54.49
11314;BME280;5712;48.858;9.206;2022-07-30T07:14:24;98375.03;;;22.80;55.61
11314;BME280;5712;48.858;9.206;2022-07-30T07:16:51;98372.00;;;22.75;56.01
11314;BME280;5712;48.858;9.206;2022-07-30T07:19:17;98371.31;;;22.81;55.35
11314;BME280;5712;48.858;9.206;2022-07-30T07:21:44;98375.72;;;22.82;54.80
11314;BME280;5712;48.858;9.206;2022-07-30T07:24:12;98379.94;;;22.77;55.63
11314;BME280;5712;48.858;9.206;2022-07-30T07:26:38;98374.91;;;22.74;55.57
11314;BME280;5712;48.858;9.206;2022-07-30T07:29:05;98367.97;;;22.79;55.17
11314;BME280;5712;48.858;9.206;2022-07-30T07:31:31;98382.09;;;22.81;55.69
11314;BME280;5712;48.858;9.206;2022-07-30T07:33:58;98376.00;;;22.87;54.93
11314;BME280;5712;48.858;9.206;2022-07-30T07:36:24;98377.00;;;22.94;54.64
11314;BME280;5712;48.858;9.206;2022-07-30T07:38:51;98372.19;;;23.04;54.98
11314;BME280;5712;48.858;9.206;2022-07-30T07:41:18;98379.75;;;23.09;54.89
11314;BME280;5712;48.858;9.206;2022-07-30T07:43:45;98373.31;;;23.18;55.62
11314;BME280;5712;48.858;9.206;2022-07-30T07:46:12;98376.09;;;23.32;53.69
11314;BME280;5712;48.858;9.206;2022-07-30T07:48:40;98383.81;;;23.35;54.15
11314;BME280;5712;48.858;9.206;2022-07-30T07:51:07;98376.66;;;23.42;53.15
11314;BME280;5712;48.858;9.206;2022-07-30T07:53:33;98380.06;;;23.44;53.93
11314;BME280;5712;48.858;9.206;2022-07-30T07:56:00;98383.53;;;23.53;53.43
11314;BME280;5712;48.858;9.206;2022-07-30T07:58:28;98379.38;;;23.65;53.28
11314;BME280;5712;48.858;9.206;2022-07-30T08:00:54;98375.97;;;23.71;50.73
11314;BME280;5712;48.858;9.206;2022-07-30T08:03:21;98382.16;;;23.71;51.86
11314;BME280;5712;48.858;9.206;2022-07-30T08:05:48;98378.91;;;23.76;50.84
11314;BME280;5712;48.858;9.206;2022-07-30T08:08:14;98373.00;;;23.80;48.43
11314;BME280;5712;48.858;9.206;2022-07-30T08:10:41;98369.88;;;23.69;50.52
11314;BME280;5712;48.858;9.206;2022-07-30T08:13:07;98380.63;;;23.54;51.11
11314;BME280;5712;48.858;9.206;2022-07-30T08:15:35;98382.91;;;23.65;51.13
11314;BME280;5712;48.858;9.206;2022-07-30T08:18:02;98375.72;;;23.58;51.06
11314;BME280;5712;48.858;9.206;2022-07-30T08:20:28;98377.50;;;23.65;50.92
11314;BME280;5712;48.858;9.206;2022-07-30T08:22:55;98383.97;;;23.79;49.70
11314;BME280;5712;48.858;9.206;2022-07-30T08:25:21;98374.50;;;23.83;51.40
11314;BME280;5712;48.858;9.206;2022-07-30T08:27:48;98382.66;;;23.97;50.87
11314;BME280;5712;48.858;9.206;2022-07-30T08:30:14;98378.19;;;24.04;48.39
11314;BME280;5712;48.858;9.206;2022-07-30T08:32:42;98374.38;;;24.13;48.64
11314;BME280;5712;48.858;9.206;2022-07-30T08:35:08;98382.19;;;24.23;47.12
11314;BME280;5712;48.858;9.206;2022-07-30T08:37:35;98383.41;;;24.20;47.76
11314;BME280;5712;48.858;9.206;2022-07-30T08:40:06;98377.19;;;24.20;47.61
11314;BME280;5712;48.858;9.206;2022-07-30T08:42:33;98376.25;;;24.27;47.43
11314;BME280;5712;48.858;9.206;2022-07-30T08:45:00;98375.25;;;24.28;46.80
11314;BME280;5712;48.858;9.206;2022-07-30T08:47:30;98386.69;;;24.45;46.95
11314;BME280;5712;48.858;9.206;2022-07-30T08:49:59;98378.41;;;24.46;46.60
11314;BME280;5712;48.858;9.206;2022-07-30T08:52:29;98380.66;;;24.57;47.01
11314;BME280;5712;48.858;9.206;2022-07-30T08:54:57;98381.50;;;24.72;47.65
11314;BME280;5712;48.858;9.206;2022-07-30T08:57:24;98381.63;;;25.00;46.30
11314;BME280;5712;48.858;9.206;2022-07-30T08:59:51;98378.63;;;25.09;46.37
11314;BME280;5712;48.858;9.206;2022-07-30T09:02:18;98374.50;;;25.13;45.39
11314;BME280;5712;48.858;9.206;2022-07-30T09:04:44;98384.34;;;24.85;44.86
11314;BME280;5712;48.858;9.206;2022-07-30T09:07:12;98378.94;;;24.85;44.79
11314;BME280;5712;48.858;9.206;2022-07-30T09:09:39;98384.16;;;25.01;44.57
11314;BME280;5712;48.858;9.206;2022-07-30T09:12:32;98385.41;;;25.05;44.58
11314;BME280;5712;48.858;9.206;2022-07-30T09:15:01;98379.06;;;25.13;44.36
11314;BME280;5712;48.858;9.206;2022-07-30T09:17:28;98384.34;;;25.21;44.23
11314;BME280;5712;48.858;9.206;2022-07-30T09:20:01;98380.81;;;25.20;43.25
11314;BME280;5712;48.858;9.206;2022-07-30T09:22:41;98382.53;;;25.07;43.55
11314;BME280;5712;48.858;9.206;2022-07-30T09:25:08;98379.38;;;25.03;43.99
11314;BME280;5712;48.858;9.206;2022-07-30T09:27:43;98387.47;;;25.03;43.71
11314;BME280;5712;48.858;9.206;2022-07-30T09:30:10;98387.94;;;25.07;43.21
11314;BME280;5712;48.858;9.206;2022-07-30T09:32:46;98391.53;;;25.28;42.78
11314;BME280;5712;48.858;9.206;2022-07-30T09:35:14;98383.88;;;25.32;42.15
11314;BME280;5712;48.858;9.206;2022-07-30T09:37:42;98386.78;;;25.51;43.01
11314;BME280;5712;48.858;9.206;2022-07-30T09:40:11;98382.03;;;25.74;42.19
11314;BME280;5712;48.858;9.206;2022-07-30T09:42:38;98378.38;;;25.88;41.61
11314;BME280;5712;48.858;9.206;2022-07-30T09:45:06;98379.78;;;25.84;41.71
11314;BME280;5712;48.858;9.206;2022-07-30T09:47:34;98388.91;;;25.98;42.06
11314;BME280;5712;48.858;9.206;2022-07-30T09:50:04;98378.09;;;26.04;42.16
11314;BME280;5712;48.858;9.206;2022-07-30T09:52:30;98380.22;;;26.36;42.05
11314;BME280;5712;48.858;9.206;2022-07-30T09:54:59;98373.84;;;26.50;41.40
11314;BME280;5712;48.858;9.206;2022-07-30T09:57:25;98372.66;;;26.59;40.09
11314;BME280;5712;48.858;9.206;2022-07-30T09:59:52;98375.16;;;26.54;39.74
11314;BME280;5712;48.858;9.206;2022-07-30T10:02:19;98382.59;;;26.52;40.04
11314;BME280;5712;48.858;9.206;2022-07-30T10:04:46;98385.78;;;26.28;39.66
11314;BME280;5712;48.858;9.206;2022-07-30T10:07:17;98388.91;;;26.25;39.60
11314;BME280;5712;48.858;9.206;2022-07-30T10:09:46;98383.22;;;26.20;39.27
11314;BME280;5712;48.858;9.206;2022-07-30T10:12:14;98380.81;;;26.04;39.13
11314;BME280;5712;48.858;9.206;2022-07-30T10:14:43;98383.22;;;26.14;39.98
11314;BME280;5712;48.858;9.206;2022-07-30T10:17:11;98369.13;;;26.31;38.71
11314;BME280;5712;48.858;9.206;2022-07-30T10:19:38;98369.31;;;26.57;39.85
11314;BME280;5712;48.858;9.206;2022-07-30T10:22:05;98369.50;;;26.96;39.70
11314;BME280;5712;48.858;9.206;2022-07-30T10:24:34;98368.31;;;27.12;38.41
11314;BME280;5712;48.858;9.206;2022-07-30T10:27:01;98368.53;;;27.17;38.52
11314;BME280;5712;48.858;9.206;2022-07-30T10:29:29;98372.97;;;27.37;38.25
11314;BME280;5712;48.858;9.206;2022-07-30T10:31:56;98370.28;;;27.31;38.50
11314;BME280;5712;48.858;9.206;2022-07-30T10:34:22;98369.91;;;26.93;38.82
11314;BME280;5712;48.858;9.206;2022-07-30T10:36:51;98370.72;;;26.81;38.98
11314;BME280;5712;48.858;9.206;2022-07-30T10:39:25;98373.75;;;26.71;39.64
11314;BME280;5712;48.858;9.206;2022-07-30T10:42:02;98371.06;;;26.71;39.58
11314;BME280;5712;48.858;9.206;2022-07-30T10:44:46;98360.28;;;26.84;39.23
11314;BME280;5712;48.858;9.206;2022-07-30T10:47:18;98359.47;;;26.97;38.80
11314;BME280;5712;48.858;9.206;2022-07-30T10:50:05;98359.19;;;26.79;39.24
11314;BME280;5712;48.858;9.206;2022-07-30T10:52:42;98360.28;;;26.91;38.47
11314;BME280;5712;48.858;9.206;2022-07-30T10:55:12;98367.13;;;26.80;38.58
11314;BME280;5712;48.858;9.206;2022-07-30T10:58:00;98354.28;;;26.55;39.14
11314;BME280;5712;48.858;9.206;2022-07-30T11:00:30;98358.69;;;26.28;40.04
11314;BME280;5712;48.858;9.206;2022-07-30T11:03:17;98362.59;;;26.19;40.14
11314;BME280;5712;48.858;9.206;2022-07-30T11:05:46;98363.72;;;26.31;39.54
11314;BME280;5712;48.858;9.206;2022-07-30T11:08:34;98354.00;;;26.50;38.55
11314;BME280;5712;48.858;9.206;2022-07-30T11:11:01;98353.28;;;26.62;39.14
11314;BME280;5712;48.858;9.206;2022-07-30T11:13:48;98360.72;;;26.88;39.16
11314;BME280;5712;48.858;9.206;2022-07-30T11:16:17;98351.56;;;27.02;37.40
11314;BME280;5712;48.858;9.206;2022-07-30T11:19:04;98351.72;;;26.87;37.71
11314;BME280;5712;48.858;9.206;2022-07-30T11:21:31;98344.97;;;26.70;38.00
11314;BME280;5712;48.858;9.206;2022-07-30T11:23:58;98357.09;;;26.74;39.08
11314;BME280;5712;48.858;9.206;2022-07-30T11:26:48;98346.09;;;26.95;38.17
11314;BME280;5712;48.858;9.206;2022-07-30T11:29:32;98344.47;;;27.07;38.66
11314;BME280;5712;48.858;9.206;2022-07-30T11:32:25;98353.13;;;27.24;36.99
11314;BME280;5712;48.858;9.206;2022-07-30T11:34:55;98347.72;;;27.37;36.75
11314;BME280;5712;48.858;9.206;2022-07-30T11:37:54;98348.16;;;27.59;36.82
11314;BME280;5712;48.858;9.206;2022-07-30T11:40:20;98345.66;;;27.64;35.24
11314;BME280;5712;48.858;9.206;2022-07-30T11:42:48;98342.97;;;27.58;34.95
11314;BME280;5712;48.858;9.206;2022-07-30T11:45:21;98345.44;;;27.40;35.38
11314;BME280;5712;48.858;9.206;2022-07-30T11:47:54;98335.81;;;27.31;36.79
11314;BME280;5712;48.858;9.206;2022-07-30T11:50:23;98334.59;;;27.53;35.59
11314;BME280;5712;48.858;9.206;2022-07-30T11:52:50;98336.88;;;27.43;35.84
11314;BME280;5712;48.858;9.206;2022-07-30T11:55:25;98336.69;;;27.51;36.62
11314;BME280;5712;48.858;9.206;2022-07-30T11:57:53;98325.84;;;27.64;36.54
11314;BME280;5712;48.858;9.206;2022-07-30T12:00:20;98333.38;;;27.88;36.44
11314;BME280;5712;48.858;9.206;2022-07-30T12:02:47;98336.94;;;27.95;36.00
11314;BME280;5712;48.858;9.206;2022-07-30T12:05:16;98331.69;;;27.87;36.06
11314;BME280;5712;48.858;9.206;2022-07-30T12:07:48;98332.13;;;27.84;36.24
11314;BME280;5712;48.858;9.206;2022-07-30T12:10:15;98325.22;;;28.01;36.18
11314;BME280;5712;48.858;9.206;2022-07-30T12:12:43;98323.31;;;28.08;35.70
11314;BME280;5712;48.858;9.206;2022-07-30T12:15:10;98317.44;;;28.17;36.03
11314;BME280;5712;48.858;9.206;2022-07-30T12:17:52;98316.81;;;28.28;35.32
11314;BME280;5712;48.858;9.206;2022-07-30T12:20:20;98322.44;;;28.27;35.00
11314;BME280;5712;48.858;9.206;2022-07-30T12:22:47;98322.03;;;28.17;35.35
11314;BME280;5712;48.858;9.206;2022-07-30T12:25:14;98316.25;;;27.94;35.92
11314;BME280;5712;48.858;9.206;2022-07-30T12:27:44;98314.97;;;27.64;35.99
11314;BME280;5712;48.858;9.206;2022-07-30T12:30:12;98315.56;;;27.27;37.01
11314;BME280;5712;48.858;9.206;2022-07-30T12:32:38;98330.38;;;27.25;36.84
11314;BME280;5712;48.858;9.206;2022-07-30T12:35:05;98321.19;;;27.38;36.77
11314;BME280;5712;48.858;9.206;2022-07-30T12:37:33;98311.19;;;27.45;36.69
11314;BME280;5712;48.858;9.206;2022-07-30T12:40:05;98324.16;;;27.63;37.08
11314;BME280;5712;48.858;9.206;2022-07-30T12:42:31;98323.31;;;28.01;35.26
11314;BME280;5712;48.858;9.206;2022-07-30T12:44:58;98312.41;;;28.21;35.21
11314;BME280;5712;48.858;9.206;2022-07-30T12:47:26;98308.44;;;28.43;35.12
11314;BME280;5712;48.858;9.206;2022-07-30T12:49:55;98305.66;;;28.56;35.08
11314;BME280;5712;48.858;9.206;2022-07-30T12:52:23;98308.88;;;28.84;34.65
11314;BME280;5712;48.858;9.206;2022-07-30T12:55:06;98301.69;;;29.02;34.37
11314;BME280;5712;48.858;9.206;2022-07-30T12:57:56;98298.38;;;28.87;34.44
11314;BME280;5712;48.858;9.206;2022-07-30T13:00:25;98294.97;;;28.61;33.87
11314;BME280;5712;48.858;9.206;2022-07-30T13:02:53;98300.88;;;28.32;35.36
11314;BME280;5712;48.858;9.206;2022-07-30T13:05:20;98297.97;;;28.27;35.13
11314;BME280;5712;48.858;9.206;2022-07-30T13:07:54;98297.41;;;28.12;35.59
11314;BME280;5712;48.858;9.206;2022-07-30T13:10:23;98284.19;;;28.22;35.29
11314;BME280;5712;48.858;9.206;2022-07-30T13:12:49;98271.88;;;28.13;35.47
11314;BME280;5712;48.858;9.206;2022-07-30T13:15:17;98278.13;;;28.13;35.30
11314;BME280;5712;48.858;9.206;2022-07-30T13:17:44;98272.69;;;28.13;36.33